sensor_id;sensor_type;location;lat;lon;timestamp;temperature;humidity
76567;DHT22;65428;53.194;6.132;2023-03-01T00:01:26;-0.50;99.90
76567;DHT22;65428;53.194;6.132;2023-03-01T00:03:53;-0.50;99.90
76567;DHT22;65428;53.194;6.132;2023-03-01T00:06:19;-0.50;99.80
76567;DHT22;65428;53.194;6.132;2023-03-01T00:08:45;-0.60;99.90
76567;DHT22;65428;53.194;6.132;2023-03-01T00:11:13;-0.60;99.90
76567;DHT22;65428;53.194;6.132;2023-03-01T00:13:39;-0.60;99.90
76567;DHT22;65428;53.194;6.132;2023-03-01T00:16:07;-0.60;99.90
76567;DHT22;65428;53.194;6.132;2023-03-01T00:18:33;-0.60;99.90
76567;DHT22;65428;53.194;6.132;2023-03-01T00:20:59;-0.60;99.90
76567;DHT22;65428;53.194;6.132;2023-03-01T00:23:26;-0.60;99.90
76567;DHT22;65428;53.194;6.132;2023-03-01T00:25:52;-0.70;99.90
76567;DHT22;65428;53.194;6.132;2023-03-01T00:28:18;-0.90;99.90
76567;DHT22;65428;53.194;6.132;2023-03-01T00:30:44;-0.90;99.90
76567;DHT22;65428;53.194;6.132;2023-03-01T00:33:10;-1.00;99.90
76567;DHT22;65428;53.194;6.132;2023-03-01T00:35:36;-1.00;99.90
76567;DHT22;65428;53.194;6.132;2023-03-01T00:38:02;-0.90;99.90
76567;DHT22;65428;53.194;6.132;2023-03-01T00:40:29;-1.00;99.90
76567;DHT22;65428;53.194;6.132;2023-03-01T00:42:55;-1.00;99.90
76567;DHT22;65428;53.194;6.132;2023-03-01T00:45:21;-1.00;99.90
76567;DHT22;65428;53.194;6.132;2023-03-01T00:47:48;-1.10;99.90
76567;DHT22;65428;53.194;6.132;2023-03-01T00:50:14;-1.10;99.90
76567;DHT22;65428;53.194;6.132;2023-03-01T00:52:40;-1.10;99.90
76567;DHT22;65428;53.194;6.132;2023-03-01T00:55:06;-1.10;99.90
76567;DHT22;65428;53.194;6.132;2023-03-01T00:57:32;-1.20;99.90
76567;DHT22;65428;53.194;6.132;2023-03-01T00:59:59;-1.20;99.90
76567;DHT22;65428;53.194;6.132;2023-03-01T01:02:24;-1.30;99.90
76567;DHT22;65428;53.194;6.132;2023-03-01T01:04:50;-1.30;99.90
76567;DHT22;65428;53.194;6.132;2023-03-01T01:07:16;-1.30;99.90
76567;DHT22;65428;53.194;6.132;2023-03-01T01:09:42;-1.20;99.90
76567;DHT22;65428;53.194;6.132;2023-03-01T01:12:08;-1.20;99.90
76567;DHT22;65428;53.194;6.132;2023-03-01T01:14:34;-1.20;99.90
76567;DHT22;65428;53.194;6.132;2023-03-01T01:17:00;-1.20;99.90
76567;DHT22;65428;53.194;6.132;2023-03-01T01:19:26;-1.20;99.90
76567;DHT22;65428;53.194;6.132;2023-03-01T01:21:52;-1.30;99.90
76567;DHT22;65428;53.194;6.132;2023-03-01T01:24:19;-1.30;99.80
76567;DHT22;65428;53.194;6.132;2023-03-01T01:26:45;-1.40;99.30
76567;DHT22;65428;53.194;6.132;2023-03-01T01:29:11;-1.50;99.90
76567;DHT22;65428;53.194;6.132;2023-03-01T01:31:38;-1.50;99.90
76567;DHT22;65428;53.194;6.132;2023-03-01T01:34:05;-1.60;99.90
76567;DHT22;65428;53.194;6.132;2023-03-01T01:36:32;-1.60;99.90
76567;DHT22;65428;53.194;6.132;2023-03-01T01:38:58;-1.60;99.90
76567;DHT22;65428;53.194;6.132;2023-03-01T01:41:26;-1.50;99.90
76567;DHT22;65428;53.194;6.132;2023-03-01T01:44:12;-1.60;99.90
76567;DHT22;65428;53.194;6.132;2023-03-01T01:47:13;-1.60;99.90
76567;DHT22;65428;53.194;6.132;2023-03-01T01:49:51;-1.60;99.80
76567;DHT22;65428;53.194;6.132;2023-03-01T01:52:24;-1.70;99.60
76567;DHT22;65428;53.194;6.132;2023-03-01T01:55:03;-1.60;99.90
76567;DHT22;65428;53.194;6.132;2023-03-01T01:57:33;-1.70;99.80
76567;DHT22;65428;53.194;6.132;2023-03-01T02:00:05;-1.70;99.80
76567;DHT22;65428;53.194;6.132;2023-03-01T02:02:31;-1.70;99.90
76567;DHT22;65428;53.194;6.132;2023-03-01T02:05:11;-1.80;99.90
76567;DHT22;65428;53.194;6.132;2023-03-01T02:07:39;-1.80;99.90
76567;DHT22;65428;53.194;6.132;2023-03-01T02:10:06;-1.80;99.90
76567;DHT22;65428;53.194;6.132;2023-03-01T02:12:32;-1.90;99.90
76567;DHT22;65428;53.194;6.132;2023-03-01T02:14:58;-1.90;99.90
76567;DHT22;65428;53.194;6.132;2023-03-01T02:17:23;-1.90;99.90
76567;DHT22;65428;53.194;6.132;2023-03-01T02:20:04;-1.90;99.90
76567;DHT22;65428;53.194;6.132;2023-03-01T02:22:35;-2.00;99.90
76567;DHT22;65428;53.194;6.132;2023-03-01T02:25:12;-2.00;99.90
76567;DHT22;65428;53.194;6.132;2023-03-01T02:30:25;-2.00;99.90
76567;DHT22;65428;53.194;6.132;2023-03-01T02:32:54;-2.00;99.90
76567;DHT22;65428;53.194;6.132;2023-03-01T02:35:29;-1.80;99.90
76567;DHT22;65428;53.194;6.132;2023-03-01T02:37:55;-2.10;99.90
76567;DHT22;65428;53.194;6.132;2023-03-01T02:40:23;-2.20;99.90
76567;DHT22;65428;53.194;6.132;2023-03-01T02:42:55;-2.20;99.90
76567;DHT22;65428;53.194;6.132;2023-03-01T02:45:21;-2.30;99.90
76567;DHT22;65428;53.194;6.132;2023-03-01T02:47:48;-2.20;99.90
76567;DHT22;65428;53.194;6.132;2023-03-01T02:50:46;-2.20;99.90
76567;DHT22;65428;53.194;6.132;2023-03-01T02:55:51;-2.30;99.90
76567;DHT22;65428;53.194;6.132;2023-03-01T02:58:16;-2.30;99.90
76567;DHT22;65428;53.194;6.132;2023-03-01T03:00:43;-2.30;99.90
76567;DHT22;65428;53.194;6.132;2023-03-01T03:03:21;-2.30;99.90
76567;DHT22;65428;53.194;6.132;2023-03-01T03:05:47;-2.30;99.90
76567;DHT22;65428;53.194;6.132;2023-03-01T03:08:14;-2.30;99.90
76567;DHT22;65428;53.194;6.132;2023-03-01T03:10:49;-2.30;99.90
76567;DHT22;65428;53.194;6.132;2023-03-01T03:13:15;-2.20;99.90
76567;DHT22;65428;53.194;6.132;2023-03-01T03:15:42;-2.20;99.90
76567;DHT22;65428;53.194;6.132;2023-03-01T03:18:14;-2.20;99.90
76567;DHT22;65428;53.194;6.132;2023-03-01T03:20:42;-2.20;99.90
76567;DHT22;65428;53.194;6.132;2023-03-01T03:23:08;-2.20;99.90
76567;DHT22;65428;53.194;6.132;2023-03-01T03:25:34;-2.20;99.90
76567;DHT22;65428;53.194;6.132;2023-03-01T03:28:03;-2.10;99.90
76567;DHT22;65428;53.194;6.132;2023-03-01T03:30:36;-2.10;99.90
76567;DHT22;65428;53.194;6.132;2023-03-01T03:33:04;-2.10;99.90
76567;DHT22;65428;53.194;6.132;2023-03-01T03:35:45;-2.00;99.90
76567;DHT22;65428;53.194;6.132;2023-03-01T03:38:13;-2.00;99.90
76567;DHT22;65428;53.194;6.132;2023-03-01T03:40:48;-2.10;99.90
76567;DHT22;65428;53.194;6.132;2023-03-01T03:43:16;-2.00;99.90
76567;DHT22;65428;53.194;6.132;2023-03-01T03:45:44;-2.10;99.90
76567;DHT22;65428;53.194;6.132;2023-03-01T03:48:11;-2.00;99.90
76567;DHT22;65428;53.194;6.132;2023-03-01T03:50:39;-2.00;99.90
76567;DHT22;65428;53.194;6.132;2023-03-01T03:53:11;-1.90;99.90
76567;DHT22;65428;53.194;6.132;2023-03-01T03:55:37;-1.90;99.90
76567;DHT22;65428;53.194;6.132;2023-03-01T03:58:05;-1.90;99.90
76567;DHT22;65428;53.194;6.132;2023-03-01T04:00:40;-1.90;99.90
76567;DHT22;65428;53.194;6.132;2023-03-01T04:03:07;-1.90;99.90
76567;DHT22;65428;53.194;6.132;2023-03-01T04:05:33;-1.90;99.90
76567;DHT22;65428;53.194;6.132;2023-03-01T04:07:58;-1.90;99.90
76567;DHT22;65428;53.194;6.132;2023-03-01T04:10:31;-1.90;99.90
76567;DHT22;65428;53.194;6.132;2023-03-01T04:12:58;-2.00;99.90
76567;DHT22;65428;53.194;6.132;2023-03-01T04:15:25;-2.00;99.90
76567;DHT22;65428;53.194;6.132;2023-03-01T04:17:52;-2.10;99.90
76567;DHT22;65428;53.194;6.132;2023-03-01T04:20:23;-2.10;99.90
76567;DHT22;65428;53.194;6.132;2023-03-01T04:23:00;-2.20;99.90
76567;DHT22;65428;53.194;6.132;2023-03-01T04:25:45;-2.30;99.90
76567;DHT22;65428;53.194;6.132;2023-03-01T04:28:11;-2.30;99.90
76567;DHT22;65428;53.194;6.132;2023-03-01T04:30:38;-2.30;99.90
76567;DHT22;65428;53.194;6.132;2023-03-01T04:33:08;-2.20;99.90
76567;DHT22;65428;53.194;6.132;2023-03-01T04:35:35;-2.20;99.90
76567;DHT22;65428;53.194;6.132;2023-03-01T04:38:01;-2.20;99.90
76567;DHT22;65428;53.194;6.132;2023-03-01T04:40:27;-2.20;99.90
76567;DHT22;65428;53.194;6.132;2023-03-01T04:42:52;-2.20;99.90
76567;DHT22;65428;53.194;6.132;2023-03-01T04:45:18;-2.20;99.90
76567;DHT22;65428;53.194;6.132;2023-03-01T04:47:45;-2.20;99.90
76567;DHT22;65428;53.194;6.132;2023-03-01T04:50:16;-2.20;99.90
76567;DHT22;65428;53.194;6.132;2023-03-01T04:52:43;-2.20;99.90
76567;DHT22;65428;53.194;6.132;2023-03-01T04:55:10;-2.30;99.90
76567;DHT22;65428;53.194;6.132;2023-03-01T04:57:36;-2.30;99.90
76567;DHT22;65428;53.194;6.132;2023-03-01T05:00:03;-2.30;99.90
76567;DHT22;65428;53.194;6.132;2023-03-01T05:02:55;-2.30;99.90
76567;DHT22;65428;53.194;6.132;2023-03-01T05:05:32;-2.30;99.90
76567;DHT22;65428;53.194;6.132;2023-03-01T05:08:00;-2.30;99.90
76567;DHT22;65428;53.194;6.132;2023-03-01T05:10:27;-2.30;99.90
76567;DHT22;65428;53.194;6.132;2023-03-01T05:12:55;-2.40;99.90
76567;DHT22;65428;53.194;6.132;2023-03-01T05:15:23;-2.50;99.90
76567;DHT22;65428;53.194;6.132;2023-03-01T05:17:51;-2.50;99.90
76567;DHT22;65428;53.194;6.132;2023-03-01T05:20:17;-2.50;99.90
76567;DHT22;65428;53.194;6.132;2023-03-01T05:22:43;-2.50;99.90
76567;DHT22;65428;53.194;6.132;2023-03-01T05:25:09;-2.50;99.90
76567;DHT22;65428;53.194;6.132;2023-03-01T05:27:35;-2.60;99.90
76567;DHT22;65428;53.194;6.132;2023-03-01T05:30:01;-2.60;99.90
76567;DHT22;65428;53.194;6.132;2023-03-01T05:32:42;-2.70;99.90
76567;DHT22;65428;53.194;6.132;2023-03-01T05:35:10;-2.80;99.90
76567;DHT22;65428;53.194;6.132;2023-03-01T05:37:39;-2.90;99.90
76567;DHT22;65428;53.194;6.132;2023-03-01T05:40:06;-2.90;99.90
76567;DHT22;65428;53.194;6.132;2023-03-01T05:42:51;-3.00;99.90
76567;DHT22;65428;53.194;6.132;2023-03-01T05:45:18;-3.00;99.90
76567;DHT22;65428;53.194;6.132;2023-03-01T05:47:45;-3.10;99.90
76567;DHT22;65428;53.194;6.132;2023-03-01T05:52:36;-3.20;99.90
76567;DHT22;65428;53.194;6.132;2023-03-01T05:55:02;-3.20;99.90
76567;DHT22;65428;53.194;6.132;2023-03-01T05:57:28;-3.30;99.90
76567;DHT22;65428;53.194;6.132;2023-03-01T05:59:54;-3.30;99.90
76567;DHT22;65428;53.194;6.132;2023-03-01T06:02:20;-3.30;99.90
76567;DHT22;65428;53.194;6.132;2023-03-01T06:04:45;-3.30;99.90
76567;DHT22;65428;53.194;6.132;2023-03-01T06:07:11;-3.40;99.90
76567;DHT22;65428;53.194;6.132;2023-03-01T06:09:36;-3.40;99.90
76567;DHT22;65428;53.194;6.132;2023-03-01T06:12:02;-3.40;99.90
76567;DHT22;65428;53.194;6.132;2023-03-01T06:14:28;-3.50;99.90
76567;DHT22;65428;53.194;6.132;2023-03-01T06:16:53;-3.50;99.90
76567;DHT22;65428;53.194;6.132;2023-03-01T06:19:19;-3.50;99.90
76567;DHT22;65428;53.194;6.132;2023-03-01T06:21:44;-3.50;99.90
76567;DHT22;65428;53.194;6.132;2023-03-01T06:24:10;-3.50;99.90
76567;DHT22;65428;53.194;6.132;2023-03-01T06:26:36;-3.50;99.90
76567;DHT22;65428;53.194;6.132;2023-03-01T06:29:01;-3.50;99.90
76567;DHT22;65428;53.194;6.132;2023-03-01T06:31:27;-3.50;99.90
76567;DHT22;65428;53.194;6.132;2023-03-01T06:33:53;-3.50;99.90
76567;DHT22;65428;53.194;6.132;2023-03-01T06:36:19;-3.50;99.90
76567;DHT22;65428;53.194;6.132;2023-03-01T06:38:46;-3.40;99.90
76567;DHT22;65428;53.194;6.132;2023-03-01T06:41:12;-3.50;99.90
76567;DHT22;65428;53.194;6.132;2023-03-01T06:43:38;-3.50;99.90
76567;DHT22;65428;53.194;6.132;2023-03-01T06:46:05;-3.50;99.90
76567;DHT22;65428;53.194;6.132;2023-03-01T06:48:32;-3.50;99.90
76567;DHT22;65428;53.194;6.132;2023-03-01T06:50:59;-3.50;99.90
76567;DHT22;65428;53.194;6.132;2023-03-01T06:53:27;-3.40;99.90
76567;DHT22;65428;53.194;6.132;2023-03-01T06:55:57;-3.40;99.90
76567;DHT22;65428;53.194;6.132;2023-03-01T06:58:23;-3.40;99.90
76567;DHT22;65428;53.194;6.132;2023-03-01T07:00:48;-3.30;99.90
76567;DHT22;65428;53.194;6.132;2023-03-01T07:03:14;-3.20;99.90
76567;DHT22;65428;53.194;6.132;2023-03-01T07:05:40;-3.10;99.90
76567;DHT22;65428;53.194;6.132;2023-03-01T07:08:05;-3.00;99.90
76567;DHT22;65428;53.194;6.132;2023-03-01T07:10:31;-3.00;99.90
76567;DHT22;65428;53.194;6.132;2023-03-01T07:12:57;-2.90;99.90
76567;DHT22;65428;53.194;6.132;2023-03-01T07:15:24;-2.80;99.90
76567;DHT22;65428;53.194;6.132;2023-03-01T07:17:50;-2.70;99.90
76567;DHT22;65428;53.194;6.132;2023-03-01T07:20:17;-2.50;99.90
76567;DHT22;65428;53.194;6.132;2023-03-01T07:22:43;-2.40;99.90
76567;DHT22;65428;53.194;6.132;2023-03-01T07:25:09;-2.30;99.90
76567;DHT22;65428;53.194;6.132;2023-03-01T07:27:36;-2.20;99.90
76567;DHT22;65428;53.194;6.132;2023-03-01T07:30:02;-2.10;99.90
76567;DHT22;65428;53.194;6.132;2023-03-01T07:32:28;-2.00;99.90
76567;DHT22;65428;53.194;6.132;2023-03-01T07:34:53;-1.90;99.90
76567;DHT22;65428;53.194;6.132;2023-03-01T07:37:19;-1.80;99.90
76567;DHT22;65428;53.194;6.132;2023-03-01T07:39:45;-1.70;99.90
76567;DHT22;65428;53.194;6.132;2023-03-01T07:42:11;-1.60;99.90
76567;DHT22;65428;53.194;6.132;2023-03-01T07:44:36;-1.60;99.90
76567;DHT22;65428;53.194;6.132;2023-03-01T07:47:03;-1.50;99.90
76567;DHT22;65428;53.194;6.132;2023-03-01T07:49:29;-1.40;99.90
76567;DHT22;65428;53.194;6.132;2023-03-01T07:51:55;-1.40;99.90
76567;DHT22;65428;53.194;6.132;2023-03-01T07:54:20;-1.30;99.90
76567;DHT22;65428;53.194;6.132;2023-03-01T07:56:46;-1.20;99.90
76567;DHT22;65428;53.194;6.132;2023-03-01T07:59:12;-1.20;99.90
76567;DHT22;65428;53.194;6.132;2023-03-01T08:01:38;-1.10;99.90
76567;DHT22;65428;53.194;6.132;2023-03-01T08:04:03;-1.00;99.90
76567;DHT22;65428;53.194;6.132;2023-03-01T08:06:34;-0.90;99.90
76567;DHT22;65428;53.194;6.132;2023-03-01T08:08:59;-0.80;99.90
76567;DHT22;65428;53.194;6.132;2023-03-01T08:11:25;-0.80;99.90
76567;DHT22;65428;53.194;6.132;2023-03-01T08:13:53;-0.70;99.90
76567;DHT22;65428;53.194;6.132;2023-03-01T08:16:19;-0.60;99.90
76567;DHT22;65428;53.194;6.132;2023-03-01T08:18:45;-0.50;99.90
76567;DHT22;65428;53.194;6.132;2023-03-01T08:21:13;-0.40;99.90
76567;DHT22;65428;53.194;6.132;2023-03-01T08:23:39;-0.30;99.90
76567;DHT22;65428;53.194;6.132;2023-03-01T08:26:07;-0.20;99.90
76567;DHT22;65428;53.194;6.132;2023-03-01T08:28:34;-0.10;99.90
76567;DHT22;65428;53.194;6.132;2023-03-01T08:31:00;0.10;99.90
76567;DHT22;65428;53.194;6.132;2023-03-01T08:33:26;0.20;99.90
76567;DHT22;65428;53.194;6.132;2023-03-01T08:35:52;0.30;99.90
76567;DHT22;65428;53.194;6.132;2023-03-01T08:38:17;0.40;99.90
76567;DHT22;65428;53.194;6.132;2023-03-01T08:40:43;0.50;99.90
76567;DHT22;65428;53.194;6.132;2023-03-01T08:43:08;0.50;99.90
76567;DHT22;65428;53.194;6.132;2023-03-01T08:45:34;0.70;99.90
76567;DHT22;65428;53.194;6.132;2023-03-01T08:48:00;0.80;99.90
76567;DHT22;65428;53.194;6.132;2023-03-01T08:50:25;0.90;99.90
76567;DHT22;65428;53.194;6.132;2023-03-01T08:52:51;1.00;99.90
76567;DHT22;65428;53.194;6.132;2023-03-01T08:55:16;1.10;99.90
76567;DHT22;65428;53.194;6.132;2023-03-01T08:57:43;1.30;99.90
76567;DHT22;65428;53.194;6.132;2023-03-01T09:00:09;1.40;99.90
76567;DHT22;65428;53.194;6.132;2023-03-01T09:02:36;1.60;99.90
76567;DHT22;65428;53.194;6.132;2023-03-01T09:05:02;1.70;99.90
76567;DHT22;65428;53.194;6.132;2023-03-01T09:07:28;1.80;99.90
76567;DHT22;65428;53.194;6.132;2023-03-01T09:09:54;2.00;99.90
76567;DHT22;65428;53.194;6.132;2023-03-01T09:12:20;2.20;99.90
76567;DHT22;65428;53.194;6.132;2023-03-01T09:14:46;2.30;99.90
76567;DHT22;65428;53.194;6.132;2023-03-01T09:17:12;2.40;99.90
76567;DHT22;65428;53.194;6.132;2023-03-01T09:19:37;2.60;99.90
76567;DHT22;65428;53.194;6.132;2023-03-01T09:22:04;2.70;99.90
76567;DHT22;65428;53.194;6.132;2023-03-01T09:24:29;2.80;99.90
76567;DHT22;65428;53.194;6.132;2023-03-01T09:26:56;2.90;99.90
76567;DHT22;65428;53.194;6.132;2023-03-01T09:29:22;3.00;99.90
76567;DHT22;65428;53.194;6.132;2023-03-01T09:31:48;3.10;99.50
76567;DHT22;65428;53.194;6.132;2023-03-01T09:34:14;3.20;99.50
76567;DHT22;65428;53.194;6.132;2023-03-01T09:36:41;3.40;98.80
76567;DHT22;65428;53.194;6.132;2023-03-01T09:39:07;3.50;98.80
76567;DHT22;65428;53.194;6.132;2023-03-01T09:44:24;3.70;98.10
76567;DHT22;65428;53.194;6.132;2023-03-01T09:46:52;3.80;98.30
76567;DHT22;65428;53.194;6.132;2023-03-01T09:49:27;3.90;97.60
76567;DHT22;65428;53.194;6.132;2023-03-01T09:52:15;4.10;97.00
76567;DHT22;65428;53.194;6.132;2023-03-01T09:54:45;4.20;96.20
76567;DHT22;65428;53.194;6.132;2023-03-01T09:57:36;4.40;96.10
76567;DHT22;65428;53.194;6.132;2023-03-01T10:03:34;5.10;95.00
76567;DHT22;65428;53.194;6.132;2023-03-01T10:06:01;5.60;94.20
76567;DHT22;65428;53.194;6.132;2023-03-01T10:08:50;6.10;93.70
76567;DHT22;65428;53.194;6.132;2023-03-01T10:11:26;6.70;92.20
76567;DHT22;65428;53.194;6.132;2023-03-01T10:16:48;7.80;90.20
76567;DHT22;65428;53.194;6.132;2023-03-01T10:19:23;8.30;87.30
76567;DHT22;65428;53.194;6.132;2023-03-01T10:21:51;8.80;86.00
76567;DHT22;65428;53.194;6.132;2023-03-01T10:24:18;9.10;82.60
76567;DHT22;65428;53.194;6.132;2023-03-01T10:26:56;9.50;81.60
76567;DHT22;65428;53.194;6.132;2023-03-01T10:29:30;9.80;78.60
76567;DHT22;65428;53.194;6.132;2023-03-01T10:31:57;10.00;76.20
76567;DHT22;65428;53.194;6.132;2023-03-01T10:34:30;10.20;79.40
76567;DHT22;65428;53.194;6.132;2023-03-01T10:36:59;10.40;73.90
76567;DHT22;65428;53.194;6.132;2023-03-01T10:39:26;10.60;76.80
76567;DHT22;65428;53.194;6.132;2023-03-01T10:42:02;10.90;76.20
76567;DHT22;65428;53.194;6.132;2023-03-01T10:44:46;11.20;73.70
76567;DHT22;65428;53.194;6.132;2023-03-01T10:47:24;11.30;72.20
76567;DHT22;65428;53.194;6.132;2023-03-01T10:52:21;11.60;69.00
76567;DHT22;65428;53.194;6.132;2023-03-01T10:54:56;11.70;68.50
76567;DHT22;65428;53.194;6.132;2023-03-01T10:57:32;11.80;69.00
76567;DHT22;65428;53.194;6.132;2023-03-01T11:02:42;12.00;66.80
76567;DHT22;65428;53.194;6.132;2023-03-01T11:07:53;11.90;67.90
76567;DHT22;65428;53.194;6.132;2023-03-01T11:10:28;12.10;67.20
76567;DHT22;65428;53.194;6.132;2023-03-01T11:13:09;12.30;66.50
76567;DHT22;65428;53.194;6.132;2023-03-01T11:15:39;12.40;64.60
76567;DHT22;65428;53.194;6.132;2023-03-01T11:18:19;12.50;59.30
76567;DHT22;65428;53.194;6.132;2023-03-01T11:20:45;12.70;62.20
76567;DHT22;65428;53.194;6.132;2023-03-01T11:23:12;12.80;60.70
76567;DHT22;65428;53.194;6.132;2023-03-01T11:25:46;12.90;62.60
76567;DHT22;65428;53.194;6.132;2023-03-01T11:28:17;13.10;57.90
76567;DHT22;65428;53.194;6.132;2023-03-01T11:31:08;13.30;59.90
76567;DHT22;65428;53.194;6.132;2023-03-01T11:36:28;13.70;54.10
76567;DHT22;65428;53.194;6.132;2023-03-01T11:38:53;13.80;51.40
76567;DHT22;65428;53.194;6.132;2023-03-01T11:41:31;13.90;51.90
76567;DHT22;65428;53.194;6.132;2023-03-01T11:44:10;14.20;52.30
76567;DHT22;65428;53.194;6.132;2023-03-01T11:47:11;14.10;52.30
76567;DHT22;65428;53.194;6.132;2023-03-01T11:52:32;14.40;50.50
76567;DHT22;65428;53.194;6.132;2023-03-01T12:00:44;15.10;49.10
76567;DHT22;65428;53.194;6.132;2023-03-01T12:03:23;15.40;49.80
76567;DHT22;65428;53.194;6.132;2023-03-01T12:06:03;15.70;46.10
76567;DHT22;65428;53.194;6.132;2023-03-01T12:08:41;15.90;46.90
76567;DHT22;65428;53.194;6.132;2023-03-01T12:11:23;16.10;47.50
76567;DHT22;65428;53.194;6.132;2023-03-01T12:25:10;17.10;43.30
76567;DHT22;65428;53.194;6.132;2023-03-01T12:27:57;17.10;44.00
76567;DHT22;65428;53.194;6.132;2023-03-01T12:30:45;17.30;42.10
76567;DHT22;65428;53.194;6.132;2023-03-01T12:33:33;17.40;39.90
76567;DHT22;65428;53.194;6.132;2023-03-01T12:36:13;17.30;39.80
76567;DHT22;65428;53.194;6.132;2023-03-01T12:41:40;17.60;39.30
76567;DHT22;65428;53.194;6.132;2023-03-01T12:44:39;17.70;38.40
76567;DHT22;65428;53.194;6.132;2023-03-01T12:47:19;17.70;39.40
76567;DHT22;65428;53.194;6.132;2023-03-01T12:50:12;17.90;39.40
76567;DHT22;65428;53.194;6.132;2023-03-01T12:52:39;18.10;38.10
76567;DHT22;65428;53.194;6.132;2023-03-01T12:55:16;18.30;38.50
76567;DHT22;65428;53.194;6.132;2023-03-01T12:57:57;18.50;39.70
76567;DHT22;65428;53.194;6.132;2023-03-01T13:00:41;18.60;37.50
76567;DHT22;65428;53.194;6.132;2023-03-01T13:03:19;18.80;37.30
76567;DHT22;65428;53.194;6.132;2023-03-01T13:06:08;19.00;37.60
76567;DHT22;65428;53.194;6.132;2023-03-01T13:09:09;19.00;37.30
76567;DHT22;65428;53.194;6.132;2023-03-01T13:11:42;19.00;37.10
76567;DHT22;65428;53.194;6.132;2023-03-01T13:16:47;18.80;37.50
76567;DHT22;65428;53.194;6.132;2023-03-01T13:19:23;18.40;36.60
76567;DHT22;65428;53.194;6.132;2023-03-01T13:21:51;18.30;37.70
76567;DHT22;65428;53.194;6.132;2023-03-01T13:24:40;18.50;39.50
76567;DHT22;65428;53.194;6.132;2023-03-01T13:29:55;18.50;39.60
76567;DHT22;65428;53.194;6.132;2023-03-01T13:32:30;18.40;38.40
76567;DHT22;65428;53.194;6.132;2023-03-01T13:37:45;18.30;37.00
76567;DHT22;65428;53.194;6.132;2023-03-01T13:42:48;17.60;36.90
76567;DHT22;65428;53.194;6.132;2023-03-01T13:45:21;17.30;40.40
76567;DHT22;65428;53.194;6.132;2023-03-01T13:47:57;17.30;39.60
76567;DHT22;65428;53.194;6.132;2023-03-01T13:50:43;17.40;40.80
76567;DHT22;65428;53.194;6.132;2023-03-01T13:53:14;17.70;39.20
76567;DHT22;65428;53.194;6.132;2023-03-01T13:55:48;17.40;41.10
76567;DHT22;65428;53.194;6.132;2023-03-01T13:58:24;17.30;40.80
76567;DHT22;65428;53.194;6.132;2023-03-01T14:01:07;17.30;40.40
76567;DHT22;65428;53.194;6.132;2023-03-01T14:03:45;17.20;39.60
76567;DHT22;65428;53.194;6.132;2023-03-01T14:06:24;17.30;41.00
76567;DHT22;65428;53.194;6.132;2023-03-01T14:09:00;17.40;39.30
76567;DHT22;65428;53.194;6.132;2023-03-01T14:17:25;17.10;41.70
76567;DHT22;65428;53.194;6.132;2023-03-01T14:20:23;16.40;42.80
76567;DHT22;65428;53.194;6.132;2023-03-01T14:22:51;15.90;42.90
76567;DHT22;65428;53.194;6.132;2023-03-01T14:28:21;15.50;42.10
76567;DHT22;65428;53.194;6.132;2023-03-01T14:30:50;15.40;45.20
76567;DHT22;65428;53.194;6.132;2023-03-01T14:33:23;15.50;43.50
76567;DHT22;65428;53.194;6.132;2023-03-01T14:36:01;15.50;44.20
76567;DHT22;65428;53.194;6.132;2023-03-01T14:38:34;15.60;43.90
76567;DHT22;65428;53.194;6.132;2023-03-01T14:41:03;15.60;42.10
76567;DHT22;65428;53.194;6.132;2023-03-01T14:43:31;15.30;43.30
76567;DHT22;65428;53.194;6.132;2023-03-01T14:45:57;15.50;44.20
76567;DHT22;65428;53.194;6.132;2023-03-01T14:48:23;15.80;43.50
76567;DHT22;65428;53.194;6.132;2023-03-01T14:50:49;15.90;43.70
76567;DHT22;65428;53.194;6.132;2023-03-01T14:53:23;15.70;43.30
76567;DHT22;65428;53.194;6.132;2023-03-01T14:55:52;15.30;44.20
76567;DHT22;65428;53.194;6.132;2023-03-01T14:58:24;15.10;45.30
76567;DHT22;65428;53.194;6.132;2023-03-01T15:01:02;14.80;44.70
76567;DHT22;65428;53.194;6.132;2023-03-01T15:03:42;14.40;46.90
76567;DHT22;65428;53.194;6.132;2023-03-01T15:06:10;14.00;46.70
76567;DHT22;65428;53.194;6.132;2023-03-01T15:08:42;14.00;47.50
76567;DHT22;65428;53.194;6.132;2023-03-01T15:13:39;14.70;47.20
76567;DHT22;65428;53.194;6.132;2023-03-01T15:16:11;14.80;47.60
76567;DHT22;65428;53.194;6.132;2023-03-01T15:18:37;14.60;47.30
76567;DHT22;65428;53.194;6.132;2023-03-01T15:21:16;14.50;47.00
76567;DHT22;65428;53.194;6.132;2023-03-01T15:23:48;14.40;47.70
76567;DHT22;65428;53.194;6.132;2023-03-01T15:26:27;13.90;47.70
76567;DHT22;65428;53.194;6.132;2023-03-01T15:28:55;13.30;49.20
76567;DHT22;65428;53.194;6.132;2023-03-01T15:31:36;12.70;50.60
76567;DHT22;65428;53.194;6.132;2023-03-01T15:34:27;12.20;52.40
76567;DHT22;65428;53.194;6.132;2023-03-01T15:36:54;11.90;54.90
76567;DHT22;65428;53.194;6.132;2023-03-01T15:39:39;11.60;55.40
76567;DHT22;65428;53.194;6.132;2023-03-01T15:42:36;11.20;56.40
76567;DHT22;65428;53.194;6.132;2023-03-01T15:47:51;10.60;60.50
76567;DHT22;65428;53.194;6.132;2023-03-01T15:50:28;10.30;61.50
76567;DHT22;65428;53.194;6.132;2023-03-01T15:52:56;10.10;61.90
76567;DHT22;65428;53.194;6.132;2023-03-01T15:55:29;10.00;63.20
76567;DHT22;65428;53.194;6.132;2023-03-01T15:58:17;9.90;64.10
76567;DHT22;65428;53.194;6.132;2023-03-01T16:00:44;9.80;66.10
76567;DHT22;65428;53.194;6.132;2023-03-01T16:03:11;9.60;67.10
76567;DHT22;65428;53.194;6.132;2023-03-01T16:05:37;9.50;68.40
76567;DHT22;65428;53.194;6.132;2023-03-01T16:08:05;9.40;68.80
76567;DHT22;65428;53.194;6.132;2023-03-01T16:10:32;9.30;69.10
76567;DHT22;65428;53.194;6.132;2023-03-01T16:12:58;9.20;69.60
76567;DHT22;65428;53.194;6.132;2023-03-01T16:15:32;9.10;70.70
76567;DHT22;65428;53.194;6.132;2023-03-01T16:17:59;9.00;72.00
76567;DHT22;65428;53.194;6.132;2023-03-01T16:20:26;8.90;73.00
76567;DHT22;65428;53.194;6.132;2023-03-01T16:22:51;8.80;74.90
76567;DHT22;65428;53.194;6.132;2023-03-01T16:25:18;8.70;77.80
76567;DHT22;65428;53.194;6.132;2023-03-01T16:27:51;8.60;81.40
76567;DHT22;65428;53.194;6.132;2023-03-01T16:30:19;8.60;84.00
76567;DHT22;65428;53.194;6.132;2023-03-01T16:32:47;8.40;86.50
76567;DHT22;65428;53.194;6.132;2023-03-01T16:35:14;8.30;87.60
76567;DHT22;65428;53.194;6.132;2023-03-01T16:37:41;8.20;88.60
76567;DHT22;65428;53.194;6.132;2023-03-01T16:40:17;8.20;89.40
76567;DHT22;65428;53.194;6.132;2023-03-01T16:42:42;8.40;90.10
76567;DHT22;65428;53.194;6.132;2023-03-01T16:45:08;8.00;90.10
76567;DHT22;65428;53.194;6.132;2023-03-01T16:47:34;7.90;90.40
76567;DHT22;65428;53.194;6.132;2023-03-01T16:50:00;7.80;90.60
76567;DHT22;65428;53.194;6.132;2023-03-01T16:52:26;7.70;90.70
76567;DHT22;65428;53.194;6.132;2023-03-01T16:54:52;7.80;90.90
76567;DHT22;65428;53.194;6.132;2023-03-01T16:57:17;7.70;91.10
76567;DHT22;65428;53.194;6.132;2023-03-01T16:59:43;7.40;91.30
76567;DHT22;65428;53.194;6.132;2023-03-01T17:02:13;7.20;91.50
76567;DHT22;65428;53.194;6.132;2023-03-01T17:04:40;7.10;91.80
76567;DHT22;65428;53.194;6.132;2023-03-01T17:07:06;7.00;92.50
76567;DHT22;65428;53.194;6.132;2023-03-01T17:09:36;6.90;92.50